»·PEaware :: YV2068 59CL-L71

YV2068 :: 59CL-L71

FLIGHT INFORMATION

Flight Status: Arrived
Operator: Privately registered:
Venezuela
More flights under this callsign
Pilot: Alan J. (5709)
Aircraft: CESSNA 310
(C310)
More flights by this aircraft type
Origin: 59CL O'Connell Brothers
United States
Destination: L71 California City Mun
United States
More flights between these airports :: More routes between these airports
Route: +BRAWL V137 PSP V386 PMD ROSIE
File this flight plan on PilotEdge
Remarks:
Altitude:
(Current/Filed)
10,000ft
Speed:
(Current/Filed)
190kts
Departed: 08-Apr-15 09:42 AM
Arrived: 08-Apr-15 11:00 AM
Distance/Time
Traveled:
180nm/1:18
Distance/Time
To Go:
Arrived

Flight Plot

Page will automatically refresh every two minutes.


Map Options




Map Legend


Flown Route
Filed Route
Departure Airport
Arrival Airport
Navaid (VOR, NDB)
Fix

Horizontal Profiles

Position Reports

Time Latitude Longitude Heading Altitude Ground
Speed
08-Apr-15 09:29 32.962513 -115.538854 268 -95ft 0kts
08-Apr-15 09:30 32.962513 -115.538856 268 -95ft 0kts
08-Apr-15 09:31 32.962513 -115.538859 268 -95ft 0kts
08-Apr-15 09:32 32.962513 -115.538862 268 -95ft 0kts
08-Apr-15 09:33 32.962513 -115.538865 268 -95ft 0kts
08-Apr-15 09:34 32.962513 -115.538868 268 -95ft 0kts
08-Apr-15 09:35 32.962513 -115.538872 268 -95ft 0kts
08-Apr-15 09:36 32.962513 -115.538875 268 -95ft 0kts
08-Apr-15 09:37 32.962512 -115.538878 268 -95ft 0kts
08-Apr-15 09:38 32.962512 -115.538880 268 -95ft 0kts
08-Apr-15 09:39 32.962512 -115.538883 268 -95ft 0kts
08-Apr-15 09:40 32.962481 -115.538966 238 -95ft 2kts
08-Apr-15 09:41 32.962967 -115.555184 268 520ft 93kts
08-Apr-15 09:42 32.966251 -115.583812 326 1742ft 124kts
08-Apr-15 09:43 33.005123 -115.605586 337 3213ft 132kts
08-Apr-15 09:44 33.040539 -115.614327 10 4486ft 133kts
08-Apr-15 09:45 33.068544 -115.616068 336 5685ft 110kts
08-Apr-15 09:46 33.097667 -115.628073 332 6958ft 109kts
08-Apr-15 09:47 33.121549 -115.649873 310 8040ft 109kts
08-Apr-15 09:48 33.140810 -115.677123 301 9218ft 108kts
08-Apr-15 09:49 33.157280 -115.710604 299 10077ft 136kts
08-Apr-15 09:50 33.189559 -115.746551 316 9966ft 171kts
08-Apr-15 09:51 33.224990 -115.782659 313 10129ft 168kts
08-Apr-15 09:52 33.260942 -115.819461 316 10036ft 177kts
08-Apr-15 09:53 33.299667 -115.855145 318 10003ft 174kts
08-Apr-15 09:54 33.338471 -115.889281 318 10002ft 173kts
08-Apr-15 09:55 33.376432 -115.924660 316 10000ft 172kts
08-Apr-15 09:56 33.414078 -115.960426 317 9998ft 172kts
08-Apr-15 09:57 33.452123 -115.995745 317 9989ft 173kts
08-Apr-15 09:58 33.489837 -116.030954 317 9985ft 171kts
08-Apr-15 09:59 33.527595 -116.066165 317 9985ft 171kts
08-Apr-15 10:00 33.565339 -116.101488 317 9983ft 172kts
08-Apr-15 10:01 33.603183 -116.136877 317 9983ft 172kts
08-Apr-15 10:02 33.641285 -116.172798 317 9801ft 179kts
08-Apr-15 10:03 33.673456 -116.215436 316 9911ft 167kts
08-Apr-15 10:04 33.706765 -116.254593 316 9947ft 172kts
08-Apr-15 10:05 33.749959 -116.280255 315 9995ft 170kts
08-Apr-15 10:06 33.780662 -116.323211 308 10001ft 169kts
08-Apr-15 10:07 33.815116 -116.363595 310 10004ft 177kts
08-Apr-15 10:08 33.849552 -116.404428 318 10003ft 173kts
08-Apr-15 10:09 33.892297 -116.433479 326 10005ft 179kts
08-Apr-15 10:10 33.936864 -116.458449 337 9996ft 178kts
08-Apr-15 10:11 33.983356 -116.479569 334 9999ft 183kts
08-Apr-15 10:12 34.030856 -116.500358 333 10004ft 182kts
08-Apr-15 10:13 34.077690 -116.520812 334 10022ft 177kts
08-Apr-15 10:14 34.123863 -116.541363 334 10021ft 176kts
08-Apr-15 10:15 34.169929 -116.561515 334 10001ft 178kts
08-Apr-15 10:16 34.216579 -116.582181 334 9989ft 177kts
08-Apr-15 10:17 34.263182 -116.602549 334 9993ft 177kts
08-Apr-15 10:18 34.309631 -116.623218 334 9994ft 177kts
08-Apr-15 10:19 34.355766 -116.643674 334 9991ft 177kts
08-Apr-15 10:20 34.402183 -116.664246 335 9991ft 177kts
08-Apr-15 10:21 34.448346 -116.685501 322 9980ft 174kts
08-Apr-15 10:22 34.478164 -116.730474 303 9991ft 171kts
08-Apr-15 10:23 34.505998 -116.777088 303 9996ft 170kts
08-Apr-15 10:24 34.533689 -116.823975 303 9981ft 170kts
08-Apr-15 10:25 34.544970 -116.877552 267 9961ft 174kts
08-Apr-15 10:26 34.543703 -116.936064 273 9945ft 176kts
08-Apr-15 10:27 34.548557 -116.995257 279 9943ft 177kts
08-Apr-15 10:28 34.557425 -117.053891 281 9944ft 175kts
08-Apr-15 10:29 34.565609 -117.112675 278 9941ft 177kts
08-Apr-15 10:30 34.569995 -117.173524 274 9934ft 185kts
08-Apr-15 10:31 34.571952 -117.234223 273 9941ft 178kts
08-Apr-15 10:32 34.574591 -117.294199 275 9941ft 177kts
08-Apr-15 10:33 34.579050 -117.353796 277 9941ft 177kts
08-Apr-15 10:34 34.584642 -117.414675 277 9928ft 185kts
08-Apr-15 10:35 34.589561 -117.475300 276 9941ft 178kts
08-Apr-15 10:36 34.593457 -117.535443 275 9942ft 178kts
08-Apr-15 10:37 34.597340 -117.595509 275 9945ft 178kts
08-Apr-15 10:38 34.601870 -117.656014 276 9944ft 181kts
08-Apr-15 10:39 34.606467 -117.716559 276 9946ft 180kts
08-Apr-15 10:40 34.610821 -117.778090 275 9940ft 184kts
08-Apr-15 10:41 34.614847 -117.840127 276 9427ft 188kts
08-Apr-15 10:42 34.620749 -117.905827 275 8181ft 197kts
08-Apr-15 10:43 34.624961 -117.973624 273 6960ft 202kts
08-Apr-15 10:44 34.633865 -118.040135 302 5712ft 196kts
08-Apr-15 10:45 34.665464 -118.088265 329 4955ft 180kts
08-Apr-15 10:46 34.706087 -118.114776 328 4969ft 169kts
08-Apr-15 10:47 34.748434 -118.144154 330 5005ft 176kts
08-Apr-15 10:48 34.784829 -118.169157 330 5025ft 187kts
08-Apr-15 10:49 34.836324 -118.205671 349 4995ft 182kts
08-Apr-15 10:50 34.885254 -118.187120 17 4940ft 191kts
08-Apr-15 10:51 34.925340 -118.162447 25 5061ft 204kts
08-Apr-15 10:52 34.975304 -118.134784 23 5033ft 196kts
08-Apr-15 10:53 35.025164 -118.105967 34 5025ft 206kts
08-Apr-15 10:54 35.059305 -118.052464 53 4973ft 197kts
08-Apr-15 10:55 35.090497 -117.998181 54 4602ft 193kts
08-Apr-15 10:56 35.131169 -117.963101 358 4516ft 180kts
08-Apr-15 10:57 35.158914 -117.978151 260 3045ft 79kts
08-Apr-15 10:58 35.154470 -118.001374 252 2555ft 69kts
08-Apr-15 10:59 35.151983 -118.013215 254 2457ft 16kts
08-Apr-15 11:00 35.150894 -118.015464 69 2457ft 10kts
08-Apr-15 11:01 35.150227 -118.013966 168 2457ft 10kts
08-Apr-15 11:02 35.150065 -118.013925 165 2457ft 0kts
08-Apr-15 11:03 35.150065 -118.013925 165 2457ft 0kts
08-Apr-15 11:04 35.150065 -118.013925 165 2457ft 0kts
08-Apr-15 11:05 35.150065 -118.013925 165 2457ft 0kts
08-Apr-15 11:06 35.150065 -118.013925 165 2457ft 0kts
08-Apr-15 11:07 35.150065 -118.013925 165 2457ft 0kts
08-Apr-15 11:08 35.150065 -118.013925 165 2457ft 0kts
08-Apr-15 11:09 35.150065 -118.013925 165 2457ft 0kts
08-Apr-15 11:10 35.150065 -118.013925 165 2457ft 0kts

Navigation Log

Ident Type
Flight plan parsing failed, navigation log unavailable